Time;durP1;ratioP1;P1;durP2;ratioP2;P2;SDS_P1;SDS_P2;PMS_P1;PMS_P2;Temp;Humidity;BMP_temperature;BMP_pressure;BME280_temperature;BME280_humidity;BME280_pressure;Samples;Min_cycle;Max_cycle;Signal;HPM_P1;HPM_P2
2023/09/05 00:00:17;;;;;;;7.55;3.00;;;17.70;62.80;;;16.77;73.11;96636.34;6037556;23;20021;-65
2023/09/05 00:02:44;;;;;;;4.97;2.65;;;17.70;62.80;;;16.75;73.21;96637.59;6036858;23;20010;-66
2023/09/05 00:05:13;;;;;;;4.07;2.83;;;17.70;63.00;;;16.73;73.03;96629.00;6060943;23;20371;-66
2023/09/05 00:07:40;;;;;;;4.32;2.63;;;17.60;63.10;;;16.70;73.39;96624.94;6059804;23;20499;-66
2023/09/05 00:10:08;;;;;;;4.40;2.75;;;17.60;63.20;;;16.69;73.66;96625.16;6060341;23;20089;-66
2023/09/05 00:12:34;;;;;;;3.53;2.38;;;17.60;62.70;;;16.65;73.26;96619.44;6061068;23;20006;-65
2023/09/05 00:15:01;;;;;;;5.15;2.50;;;17.60;63.10;;;16.66;73.69;96614.94;6060080;23;20010;-65
2023/09/05 00:17:27;;;;;;;3.80;2.38;;;17.60;63.00;;;16.66;73.75;96607.81;6083118;23;20451;-64
2023/09/05 00:19:55;;;;;;;4.30;2.42;;;17.60;63.10;;;16.64;73.47;96611.69;6036472;23;20010;-66
2023/09/05 00:22:21;;;;;;;3.53;2.38;;;17.60;63.20;;;16.61;74.52;96610.28;6084125;23;20058;-66
2023/09/05 00:24:48;;;;;;;3.53;2.42;;;17.60;63.40;;;16.61;74.25;96609.47;6035065;23;20021;-63
2023/09/05 00:27:14;;;;;;;3.45;2.40;;;17.50;63.40;;;16.60;74.65;96599.88;6079424;23;20022;-67
2023/09/05 00:29:40;;;;;;;4.60;2.80;;;17.50;63.50;;;16.59;74.59;96600.88;6059948;23;20412;-67
2023/09/05 00:32:06;;;;;;;3.83;2.70;;;17.50;63.50;;;16.56;74.52;96606.63;6083247;23;20372;-67
2023/09/05 00:34:34;;;;;;;5.35;2.80;;;17.50;63.70;;;16.53;75.25;96600.72;6081240;23;20102;-67
2023/09/05 00:37:01;;;;;;;3.58;2.30;;;17.50;64.30;;;16.49;74.96;96602.16;6034832;23;20010;-66
2023/09/05 00:39:29;;;;;;;3.58;2.30;;;17.40;64.10;;;16.45;76.23;96606.28;6060616;23;20010;-67
2023/09/05 00:41:56;;;;;;;3.00;2.40;;;17.40;64.50;;;16.40;76.15;96603.44;6058890;23;20010;-67
2023/09/05 00:44:24;;;;;;;3.70;2.42;;;17.30;64.80;;;16.40;77.22;96599.97;6083850;23;20486;-67
2023/09/05 00:46:52;;;;;;;5.72;2.60;;;17.40;64.90;;;16.38;77.06;96604.69;6058863;23;20036;-66
2023/09/05 00:49:22;;;;;;;3.40;2.72;;;17.30;65.40;;;16.32;78.33;96610.84;6036997;23;20052;-64
2023/09/05 00:51:50;;;;;;;3.92;2.80;;;17.20;65.50;;;16.28;77.62;96599.81;6059941;23;20025;-65
2023/09/05 00:54:16;;;;;;;3.45;2.45;;;17.20;65.40;;;16.26;77.43;96593.09;6037255;23;20006;-67
2023/09/05 00:56:43;;;;;;;4.55;2.60;;;17.10;65.40;;;16.26;78.17;96590.44;6035196;23;20013;-66
2023/09/05 00:59:09;;;;;;;4.10;2.85;;;17.20;65.70;;;16.20;77.86;96600.91;6083805;23;20097;-66
2023/09/05 01:01:35;;;;;;;4.55;2.67;;;17.10;65.50;;;16.18;77.95;96600.28;6059628;23;20006;-67
2023/09/05 01:04:01;;;;;;;4.18;2.67;;;17.10;65.80;;;16.13;79.22;96596.66;6058945;23;20009;-67
2023/09/05 01:06:57;;;;;;;4.20;2.90;;;17.10;66.10;;;16.11;80.29;96607.47;6071059;23;20022;-66
2023/09/05 01:09:56;;;;;;;4.40;2.90;;;17.10;66.00;;;16.09;80.49;96600.75;6102958;23;20016;-66
2023/09/05 01:12:22;;;;;;;6.35;2.50;;;17.00;66.20;;;16.06;79.17;96595.84;6071592;23;20510;-66
2023/09/05 01:14:48;;;;;;;4.75;2.42;;;17.00;66.30;;;16.03;79.31;96590.97;6057396;23;20160;-62
2023/09/05 01:17:14;;;;;;;4.00;2.75;;;17.00;66.70;;;16.00;80.28;96597.50;6108668;23;20037;-66
2023/09/05 01:19:40;;;;;;;4.57;2.38;;;17.00;66.80;;;15.97;80.45;96581.19;6107243;23;20014;-65
2023/09/05 01:22:13;;;;;;;3.85;2.75;;;16.90;66.90;;;15.97;81.74;96589.16;6035886;23;20398;-66
2023/09/05 01:24:40;;;;;;;4.25;2.88;;;16.90;66.90;;;15.92;80.32;96580.00;6082282;23;20473;-64
2023/09/05 01:27:06;;;;;;;4.88;2.78;;;16.90;67.10;;;15.92;81.40;96573.88;6059957;23;20316;-66
2023/09/05 01:29:35;;;;;;;4.07;2.65;;;16.90;67.20;;;15.91;81.15;96575.72;6059098;23;20471;-65
2023/09/05 01:32:01;;;;;;;3.55;2.58;;;16.90;67.40;;;15.90;81.38;96576.75;6060706;23;20407;-64
2023/09/05 01:34:27;;;;;;;4.40;2.80;;;16.80;67.30;;;15.87;81.80;96577.16;6078823;23;20006;-65
2023/09/05 01:36:53;;;;;;;6.25;2.67;;;16.80;67.40;;;15.84;81.87;96580.25;6055165;23;20006;-66
2023/09/05 01:39:19;;;;;;;4.15;3.08;;;16.70;67.60;;;15.83;82.16;96581.25;6111554;23;20039;-64
2023/09/05 01:41:45;;;;;;;3.40;2.50;;;16.80;67.60;;;15.83;81.97;96569.81;6056061;23;19998;-66
2023/09/05 01:44:11;;;;;;;3.13;2.65;;;16.80;67.60;;;15.82;81.95;96582.28;6002770;23;20483;-66
2023/09/05 01:46:37;;;;;;;3.75;2.92;;;16.70;67.60;;;15.81;81.84;96578.00;6024313;23;20034;-66
2023/09/05 01:49:03;;;;;;;3.92;2.78;;;16.70;67.70;;;15.77;82.88;96576.78;6050570;23;20006;-65
2023/09/05 01:51:29;;;;;;;5.40;3.08;;;16.70;67.80;;;15.76;82.61;96577.00;6111695;23;20492;-66
2023/09/05 01:53:54;;;;;;;4.53;2.83;;;16.70;68.10;;;15.72;83.57;96573.94;6086286;23;20014;-66
2023/09/05 01:56:20;;;;;;;4.95;3.10;;;16.70;68.30;;;15.71;83.96;96577.63;6061318;23;20026;-65
2023/09/05 01:58:46;;;;;;;3.78;3.00;;;16.60;68.40;;;15.69;84.05;96574.38;6085922;23;20137;-66
2023/09/05 02:01:12;;;;;;;4.50;3.10;;;16.60;68.50;;;15.69;84.43;96579.69;6085156;23;20017;-65
2023/09/05 02:03:38;;;;;;;5.63;3.00;;;16.60;68.60;;;15.65;84.83;96578.47;6110742;23;20021;-66
2023/09/05 02:06:04;;;;;;;5.63;3.10;;;16.60;68.80;;;15.63;85.01;96588.47;6060657;23;20021;-66
2023/09/05 02:08:29;;;;;;;4.65;3.08;;;16.60;69.20;;;15.60;84.88;96581.72;6085324;23;20089;-65
2023/09/05 02:10:55;;;;;;;5.30;3.33;;;16.60;69.40;;;15.59;85.58;96573.97;6086156;23;20129;-66
2023/09/05 02:13:21;;;;;;;3.88;2.88;;;16.50;69.40;;;15.56;85.60;96582.31;6085666;23;20010;-65
2023/09/05 02:15:47;;;;;;;3.83;2.88;;;16.50;69.70;;;15.53;86.58;96593.34;6110187;23;20033;-65
2023/09/05 02:18:12;;;;;;;3.53;2.88;;;16.50;69.80;;;15.48;86.05;96588.69;6061570;23;20333;-64
2023/09/05 02:20:41;;;;;;;4.40;3.00;;;16.40;70.10;;;15.46;86.73;96592.56;6106353;23;20455;-66
2023/09/05 02:23:07;;;;;;;4.25;3.00;;;16.40;70.10;;;15.43;87.24;96579.72;6061799;23;20010;-65
2023/09/05 02:25:33;;;;;;;5.75;3.42;;;16.40;70.30;;;15.40;87.70;96582.78;6060687;23;20032;-66
2023/09/05 02:27:59;;;;;;;3.92;2.95;;;16.30;70.50;;;15.35;88.75;96585.22;6061791;23;20110;-66
2023/09/05 02:30:25;;;;;;;4.57;2.80;;;16.30;70.70;;;15.31;89.06;96576.88;6036663;23;20060;-66
2023/09/05 02:32:54;;;;;;;4.43;3.10;;;16.20;70.80;;;15.25;89.64;96586.47;6061078;23;20018;-65
2023/09/05 02:35:27;;;;;;;3.65;3.00;;;16.10;71.10;;;15.22;91.42;96592.19;6058579;23;20022;-65
2023/09/05 02:37:54;;;;;;;5.03;3.13;;;16.10;71.40;;;15.20;89.17;96583.63;6084791;23;20081;-66
2023/09/05 02:40:20;;;;;;;4.40;3.05;;;16.10;71.30;;;15.14;89.81;96587.09;6037484;23;20014;-63
2023/09/05 02:42:45;;;;;;;4.03;3.25;;;16.10;71.60;;;15.13;91.02;96584.66;6084996;23;20081;-67
2023/09/05 02:45:12;;;;;;;5.28;3.90;;;16.10;71.90;;;15.11;89.91;96576.91;6085175;23;20049;-67
2023/09/05 02:47:38;;;;;;;4.63;3.30;;;16.10;72.10;;;15.09;90.85;96578.94;6085184;23;20013;-65
2023/09/05 02:50:04;;;;;;;3.80;3.17;;;16.10;72.00;;;15.04;91.09;96581.41;6060840;23;20670;-67
2023/09/05 02:52:31;;;;;;;4.40;3.30;;;16.00;72.30;;;15.01;91.17;96571.22;6061462;23;20089;-66
2023/09/05 02:54:56;;;;;;;4.13;3.42;;;16.00;72.20;;;14.98;91.86;96577.75;6037699;23;20021;-65
2023/09/05 02:57:22;;;;;;;11.13;8.93;;;16.00;72.50;;;14.95;93.40;96585.28;6060514;23;20018;-66
2023/09/05 02:59:52;;;;;;;10.52;6.70;;;16.00;72.70;;;14.93;93.80;96580.16;6084935;23;20056;-65
2023/09/05 03:02:18;;;;;;;7.87;5.33;;;15.90;72.90;;;14.91;92.74;96581.41;6061313;23;20013;-66
2023/09/05 03:04:44;;;;;;;7.88;4.78;;;15.90;73.10;;;14.88;94.20;96595.88;6110596;23;20013;-66
2023/09/05 03:07:10;;;;;;;17.52;12.93;;;15.90;72.90;;;14.89;93.72;96586.09;6061244;23;20474;-64
2023/09/05 03:09:37;;;;;;;8.98;7.25;;;15.90;73.30;;;14.84;93.98;96593.84;6060661;23;20467;-65
2023/09/05 03:12:04;;;;;;;11.48;9.10;;;15.80;73.00;;;14.79;94.54;96596.28;6061322;23;20014;-65
2023/09/05 03:14:30;;;;;;;9.50;6.68;;;15.80;73.20;;;14.78;95.27;96594.66;6060674;23;20037;-65
2023/09/05 03:16:57;;;;;;;6.07;4.07;;;15.90;73.30;;;14.74;95.11;96591.59;6108534;23;20467;-66
2023/09/05 03:19:23;;;;;;;6.43;4.00;;;15.80;73.20;;;14.74;95.79;96596.06;6084596;23;20029;-66
2023/09/05 03:21:49;;;;;;;4.65;3.47;;;15.80;73.50;;;14.70;95.64;96593.81;6085200;23;20447;-67
2023/09/05 03:24:18;;;;;;;4.30;3.50;;;15.70;73.40;;;14.68;95.95;96593.19;6037356;23;20343;-66
2023/09/05 03:26:47;;;;;;;4.22;3.72;;;15.80;73.40;;;14.68;96.34;96592.38;6074520;23;20017;-66
2023/09/05 03:29:13;;;;;;;5.22;3.75;;;15.70;73.60;;;14.67;95.75;96588.09;6046539;23;20073;-64
2023/09/05 03:31:43;;;;;;;8.98;7.45;;;15.70;73.60;;;14.65;97.20;96592.78;6059591;23;20006;-66
2023/09/05 03:34:09;;;;;;;21.47;15.97;;;15.60;73.80;;;14.61;96.25;96589.75;6038369;23;20006;-66
2023/09/05 03:36:35;;;;;;;9.63;8.00;;;15.60;73.90;;;14.57;96.97;96585.88;6081228;23;20101;-65
2023/09/05 03:39:01;;;;;;;7.95;4.68;;;15.60;73.90;;;14.56;96.99;96584.25;6060970;23;20006;-65
2023/09/05 03:41:28;;;;;;;5.75;3.63;;;15.60;73.90;;;14.53;97.02;96584.66;6061998;23;20041;-66
2023/09/05 03:43:54;;;;;;;7.45;4.10;;;15.60;74.00;;;14.51;98.11;96586.69;6061219;23;20006;-66
2023/09/05 03:46:20;;;;;;;5.60;3.70;;;15.60;74.20;;;14.49;97.62;96583.44;6085106;23;20060;-66
2023/09/05 03:48:47;;;;;;;5.25;3.60;;;15.60;74.00;;;14.45;98.20;96582.16;6061491;23;20010;-65
2023/09/05 03:51:12;;;;;;;5.30;3.35;;;15.50;74.20;;;14.45;97.94;96584.81;6085399;23;20017;-66
2023/09/05 03:53:38;;;;;;;5.82;3.70;;;15.60;74.30;;;14.47;97.38;96585.44;6085191;23;20343;-66
2023/09/05 03:56:04;;;;;;;4.93;3.67;;;15.60;74.10;;;14.46;97.53;96583.81;6083936;23;20037;-66
2023/09/05 03:58:31;;;;;;;5.90;4.00;;;15.50;74.10;;;14.47;97.62;96582.78;6085458;23;20332;-66
2023/09/05 04:01:02;;;;;;;9.48;5.70;;;15.60;74.20;;;14.45;98.31;96584.81;6036859;23;20006;-65
2023/09/05 04:03:27;;;;;;;10.10;8.00;;;15.50;74.30;;;14.44;97.84;96588.47;6105880;23;20017;-67
2023/09/05 04:05:53;;;;;;;8.05;5.03;;;15.50;74.50;;;14.42;98.01;96587.84;6060193;23;20128;-66
2023/09/05 04:08:19;;;;;;;7.40;3.83;;;15.40;74.60;;;14.39;98.22;96582.94;6084889;23;20025;-65
2023/09/05 04:10:45;;;;;;;5.45;3.30;;;15.50;74.60;;;14.39;98.85;96577.66;6084391;23;20073;-65
2023/09/05 04:13:10;;;;;;;6.13;3.55;;;15.50;74.80;;;14.35;100.00;96585.19;6085058;23;20057;-66
2023/09/05 04:15:36;;;;;;;5.15;3.63;;;15.40;74.70;;;14.36;98.65;96593.94;6060498;23;20049;-66
2023/09/05 04:18:02;;;;;;;4.32;3.42;;;15.50;74.70;;;14.36;98.37;96591.28;6060040;23;20577;-65
2023/09/05 04:20:29;;;;;;;7.30;5.20;;;15.40;74.70;;;14.38;100.00;96591.91;6085306;23;20110;-66
2023/09/05 04:22:55;;;;;;;9.23;5.45;;;15.50;74.70;;;14.36;99.29;96583.34;6060528;23;20005;-66
2023/09/05 04:25:20;;;;;;;8.70;6.25;;;15.40;74.70;;;14.37;100.00;96584.97;6085175;23;21661;-66
2023/09/05 04:27:47;;;;;;;5.57;4.22;;;15.40;74.80;;;14.38;99.86;96597.19;6083015;23;20442;-67
2023/09/05 04:30:13;;;;;;;5.00;3.70;;;15.40;74.70;;;14.33;100.00;96591.69;6084551;23;20096;-66
2023/09/05 04:32:38;;;;;;;4.72;3.10;;;15.40;74.80;;;14.32;99.65;96596.19;6048772;23;20041;-66
2023/09/05 04:35:05;;;;;;;5.20;3.75;;;15.40;74.80;;;14.32;99.46;96600.66;6080495;23;20415;-67
2023/09/05 04:37:32;;;;;;;7.88;3.60;;;15.40;74.80;;;14.32;99.64;96585.59;6060211;23;20130;-67
2023/09/05 04:39:57;;;;;;;6.45;3.25;;;15.40;74.80;;;14.30;100.00;96590.28;6060623;23;20448;-66
2023/09/05 04:42:25;;;;;;;5.03;3.17;;;15.40;74.90;;;14.32;99.58;96587.44;6110418;23;20014;-66
2023/09/05 04:44:51;;;;;;;5.35;3.25;;;15.40;74.80;;;14.31;99.76;96588.44;6084401;23;20085;-66
2023/09/05 04:47:27;;;;;;;5.32;3.22;;;15.40;74.90;;;14.31;100.00;96593.72;6059645;23;20029;-66
2023/09/05 04:49:58;;;;;;;4.57;3.03;;;15.40;74.90;;;14.29;100.00;96593.13;6059021;23;20582;-65
2023/09/05 04:52:26;;;;;;;6.20;3.55;;;15.40;75.00;;;14.29;100.00;96599.22;6059975;23;20002;-66
2023/09/05 04:54:53;;;;;;;4.05;3.50;;;15.40;75.10;;;14.31;100.00;96607.78;6055677;23;20069;-64
2023/09/05 04:57:19;;;;;;;7.13;3.53;;;15.40;75.10;;;14.31;100.00;96606.97;6060932;23;20009;-65
2023/09/05 04:59:47;;;;;;;4.93;3.40;;;15.40;75.10;;;14.32;100.00;96608.59;6095492;23;19998;-66
2023/09/05 05:02:16;;;;;;;5.10;3.60;;;15.40;75.10;;;14.32;100.00;96609.41;6060445;23;20026;-66
2023/09/05 05:04:43;;;;;;;4.93;3.15;;;15.50;75.00;;;14.35;100.00;96608.19;6060364;23;20697;-67
2023/09/05 05:07:09;;;;;;;5.90;3.33;;;15.50;74.90;;;14.35;100.00;96614.31;6079119;23;20029;-67
2023/09/05 05:09:34;;;;;;;4.57;3.67;;;15.50;74.90;;;14.36;100.00;96612.47;6062171;23;20010;-66
2023/09/05 05:12:01;;;;;;;4.53;3.55;;;15.60;74.90;;;14.36;100.00;96605.34;6062588;23;20450;-66
2023/09/05 05:14:28;;;;;;;5.55;3.42;;;15.60;74.90;;;14.40;100.00;96608.41;6086118;23;20451;-67
2023/09/05 05:16:53;;;;;;;4.32;3.55;;;15.60;74.90;;;14.43;100.00;96615.97;6062175;23;20018;-67
2023/09/05 05:19:21;;;;;;;4.60;3.40;;;15.60;75.00;;;14.44;100.00;96616.78;6062868;23;20040;-67
2023/09/05 05:21:48;;;;;;;7.78;3.95;;;15.60;74.90;;;14.48;100.00;96615.34;6060303;23;20006;-65
2023/09/05 05:24:14;;;;;;;6.05;3.63;;;15.60;75.00;;;14.50;100.00;96616.81;6061301;23;20012;-68
2023/09/05 05:26:40;;;;;;;5.45;3.80;;;15.70;75.00;;;14.53;100.00;96618.25;6084881;23;20014;-67
2023/09/05 05:29:05;;;;;;;7.28;3.20;;;15.70;74.80;;;14.54;100.00;96622.53;6056705;23;20080;-67
2023/09/05 05:31:33;;;;;;;5.45;3.67;;;15.80;74.80;;;14.57;100.00;96627.41;6072397;23;20013;-67
2023/09/05 05:33:59;;;;;;;5.25;3.88;;;15.80;74.90;;;14.59;100.00;96626.19;6023126;23;20415;-65
2023/09/05 05:36:26;;;;;;;4.60;3.70;;;15.80;74.80;;;14.61;100.00;96624.16;6105444;23;20439;-67
2023/09/05 05:38:52;;;;;;;6.88;4.30;;;15.90;74.70;;;14.67;100.00;96633.13;6059027;23;20081;-66
2023/09/05 05:41:18;;;;;;;5.07;3.50;;;16.00;74.70;;;14.73;100.00;96627.03;6060693;23;20010;-66
2023/09/05 05:43:44;;;;;;;4.45;3.50;;;16.10;74.60;;;14.78;100.00;96614.00;6060851;23;20002;-66
2023/09/05 05:46:10;;;;;;;6.78;3.58;;;16.10;74.50;;;14.84;100.00;96630.91;6037259;23;20010;-65
2023/09/05 05:48:36;;;;;;;6.28;3.85;;;16.10;74.40;;;14.90;100.00;96627.44;6037350;23;20552;-65
2023/09/05 05:51:02;;;;;;;4.65;3.65;;;16.30;74.30;;;14.94;100.00;96634.00;6084967;23;20075;-65
2023/09/05 05:53:28;;;;;;;5.43;3.83;;;16.30;73.60;;;14.99;100.00;96628.88;6085067;23;20010;-67
2023/09/05 05:55:54;;;;;;;5.43;4.05;;;16.40;73.60;;;15.05;100.00;96630.72;6059992;23;20084;-67
2023/09/05 05:58:20;;;;;;;5.50;4.00;;;16.50;73.10;;;15.13;100.00;96635.81;6061421;23;20403;-66
2023/09/05 06:00:50;;;;;;;6.85;3.83;;;16.60;73.00;;;15.17;100.00;96628.28;6060052;23;20017;-66
2023/09/05 06:03:17;;;;;;;5.88;4.05;;;16.60;73.00;;;15.22;100.00;96637.25;6038356;23;20006;-67
2023/09/05 06:05:44;;;;;;;5.45;3.50;;;16.60;72.60;;;15.25;100.00;96636.84;6083630;23;20154;-65
2023/09/05 06:08:10;;;;;;;4.60;3.63;;;16.70;72.50;;;15.31;100.00;96635.19;6085242;23;20113;-66
2023/09/05 06:10:35;;;;;;;5.43;3.78;;;16.70;72.50;;;15.37;100.00;96636.19;6060922;23;20058;-66
2023/09/05 06:13:01;;;;;;;5.00;3.85;;;16.80;72.10;;;15.44;99.90;96642.31;6060938;23;20006;-66
2023/09/05 06:15:27;;;;;;;5.72;3.55;;;16.90;71.60;;;15.50;99.31;96638.84;6060953;23;20447;-66
2023/09/05 06:17:53;;;;;;;6.93;3.97;;;16.90;71.80;;;15.58;99.60;96641.25;6059503;23;20021;-65
2023/09/05 06:20:19;;;;;;;6.18;3.72;;;17.10;71.50;;;15.65;99.57;96646.63;6072316;23;20054;-69
2023/09/05 06:22:45;;;;;;;5.57;3.63;;;17.10;71.20;;;15.72;98.39;96642.09;6050330;23;20011;-69
2023/09/05 06:25:11;;;;;;;4.82;4.13;;;17.30;70.80;;;15.78;98.27;96635.94;6083441;23;20081;-70
2023/09/05 06:27:38;;;;;;;5.18;3.88;;;17.40;70.30;;;15.82;97.85;96637.97;6079841;23;20013;-70
2023/09/05 06:30:04;;;;;;;5.88;3.92;;;17.50;69.90;;;15.89;97.26;96620.22;6082100;23;20014;-69
2023/09/05 06:32:32;;;;;;;5.10;3.75;;;17.50;70.10;;;15.99;97.16;96624.25;6057624;23;20002;-71
2023/09/05 06:34:58;;;;;;;4.28;3.25;;;17.60;70.30;;;16.06;96.57;96633.00;6054922;23;20005;-73
2023/09/05 06:37:24;;;;;;;6.15;3.83;;;17.60;69.50;;;16.08;96.04;96630.97;6057413;23;20006;-71
2023/09/05 06:39:50;;;;;;;5.68;3.70;;;17.60;69.90;;;16.14;95.81;96627.47;6073638;23;20034;-73
2023/09/05 06:42:16;;;;;;;5.30;3.60;;;17.70;70.00;;;16.20;95.68;96626.63;6084990;23;20006;-74
2023/09/05 06:44:44;;;;;;;3.72;3.33;;;17.70;69.80;;;16.28;94.94;96637.00;6062699;23;20320;-73
2023/09/05 06:47:09;;;;;;;6.22;4.00;;;17.80;68.90;;;16.37;94.77;96629.63;6068593;23;20078;-71
2023/09/05 06:49:35;;;;;;;6.28;3.60;;;18.00;69.10;;;16.44;95.08;96623.22;6062648;23;20002;-71
2023/09/05 06:52:03;;;;;;;4.55;3.30;;;18.00;69.40;;;16.56;94.20;96622.56;6080314;23;20013;-71
2023/09/05 06:54:29;;;;;;;4.95;3.80;;;18.10;68.70;;;16.63;93.30;96623.34;6082908;23;20082;-72
2023/09/05 06:56:54;;;;;;;5.43;3.70;;;18.20;67.70;;;16.73;92.33;96621.84;6045047;23;20034;-69
2023/09/05 06:59:20;;;;;;;5.20;3.30;;;18.30;67.70;;;16.86;92.26;96622.81;6081608;23;20007;-72
2023/09/05 07:01:46;;;;;;;5.47;3.28;;;18.60;67.30;;;16.99;91.19;96622.72;6082492;23;20010;-74
2023/09/05 07:04:13;;;;;;;6.47;3.38;;;18.70;65.80;;;17.10;90.46;96632.63;6058116;23;20014;-72
2023/09/05 07:06:42;;;;;;;4.28;2.85;;;18.80;65.80;;;17.26;89.45;96628.63;6057214;23;20405;-71
2023/09/05 07:09:08;;;;;;;4.32;3.03;;;19.10;65.30;;;17.40;89.26;96619.47;6081049;23;20094;-71
2023/09/05 07:11:34;;;;;;;5.50;3.08;;;19.30;64.50;;;17.59;88.77;96617.66;6081304;23;20425;-71
2023/09/05 07:14:00;;;;;;;4.93;3.97;;;19.70;64.30;;;17.83;88.80;96618.66;6056576;23;20007;-71
2023/09/05 07:16:26;;;;;;;6.25;4.20;;;20.30;62.80;;;18.09;88.43;96613.03;6079941;23;20465;-69
2023/09/05 07:18:53;;;;;;;6.65;3.78;;;20.90;60.30;;;18.39;86.27;96614.94;6080968;23;20363;-72
2023/09/05 07:21:18;;;;;;;6.97;3.90;;;21.20;58.90;;;18.69;86.35;96620.28;6056948;23;20017;-71
2023/09/05 07:23:44;;;;;;;7.40;4.25;;;21.60;58.10;;;19.03;84.47;96618.75;6056824;23;20007;-72
2023/09/05 07:26:10;;;;;;;4.75;3.47;;;22.20;55.70;;;19.41;82.42;96611.13;6080196;23;20017;-70
2023/09/05 07:28:36;;;;;;;5.38;2.72;;;22.80;54.50;;;19.81;81.60;96613.91;6079737;23;20340;-70
2023/09/05 07:31:04;;;;;;;6.65;2.60;;;23.30;52.80;;;20.29;80.78;96611.94;6081955;23;20062;-70
2023/09/05 07:33:30;;;;;;;4.40;2.38;;;23.90;51.80;;;20.73;78.05;96605.84;6032225;23;20018;-71
2023/09/05 07:35:55;;;;;;;4.75;2.28;;;24.20;50.60;;;21.21;75.63;96596.47;6054153;23;20135;-71
2023/09/05 07:38:21;;;;;;;3.78;2.30;;;24.60;49.40;;;21.64;73.40;96587.78;6033151;23;20073;-72
2023/09/05 07:40:50;;;;;;;5.70;2.60;;;24.90;48.80;;;22.13;72.08;96577.19;6055660;23;20014;-70
2023/09/05 07:43:19;;;;;;;3.30;2.40;;;25.30;48.40;;;22.60;69.36;96574.75;6081524;23;22126;-74
2023/09/05 07:45:46;;;;;;;4.88;2.28;;;25.70;46.70;;;22.99;66.34;96569.22;6058019;23;20066;-74
2023/09/05 07:48:12;;;;;;;3.13;2.15;;;25.90;45.70;;;23.32;63.91;96564.66;6086670;23;20010;-73
2023/09/05 07:50:38;;;;;;;6.22;2.72;;;26.10;44.60;;;23.68;63.52;96555.75;6085672;23;20041;-73
2023/09/05 07:53:03;;;;;;;7.47;2.30;;;26.50;44.30;;;23.97;62.08;96566.09;6109774;23;20014;-73
2023/09/05 07:55:29;;;;;;;3.45;2.15;;;26.60;43.80;;;24.23;60.09;96548.22;6085514;23;20080;-74
2023/09/05 07:57:55;;;;;;;2.88;1.90;;;27.00;42.60;;;24.50;58.77;96554.22;6086702;23;20018;-71
2023/09/05 08:00:21;;;;;;;4.78;2.50;;;27.30;42.60;;;24.70;57.69;96548.88;6059474;23;20006;-70
2023/09/05 08:02:46;;;;;;;2.97;1.98;;;27.40;41.90;;;24.95;57.22;96542.69;6061196;23;20033;-70
2023/09/05 08:05:12;;;;;;;5.10;2.50;;;27.70;41.80;;;25.17;55.73;96547.03;6109888;23;20447;-71
2023/09/05 08:07:38;;;;;;;3.42;2.10;;;27.90;40.60;;;25.38;55.47;96543.22;6107993;23;20010;-77
2023/09/05 08:10:06;;;;;;;7.32;2.03;;;28.10;40.80;;;25.58;53.69;96534.28;6058264;23;20006;-73
2023/09/05 08:12:32;;;;;;;2.90;2.00;;;28.30;40.30;;;25.70;53.99;96539.41;6085210;23;19994;-72
2023/09/05 08:14:58;;;;;;;4.88;2.25;;;28.40;40.50;;;25.79;52.90;96532.34;6085691;23;20033;-73
2023/09/05 08:17:23;;;;;;;3.83;2.13;;;28.60;39.70;;;25.90;51.96;96529.34;6109923;23;20021;-72
2023/09/05 08:19:49;;;;;;;5.70;2.13;;;28.60;39.20;;;25.92;51.80;96532.56;6060864;23;20371;-70
2023/09/05 08:22:15;;;;;;;2.78;1.80;;;28.60;39.50;;;26.09;51.19;96526.84;6109528;23;20503;-69
2023/09/05 08:24:40;;;;;;;2.85;2.17;;;28.80;39.70;;;26.25;50.66;96522.16;6084792;23;20013;-72
2023/09/05 08:27:12;;;;;;;4.00;2.33;;;29.00;39.10;;;26.36;49.12;96507.56;6084486;23;20006;-75
2023/09/05 08:29:38;;;;;;;5.55;2.03;;;29.10;38.40;;;26.50;49.77;96516.66;6059804;23;20006;-74
2023/09/05 08:32:04;;;;;;;2.50;1.88;;;29.30;38.50;;;26.60;49.88;96518.47;6108695;23;20025;-75
2023/09/05 08:34:32;;;;;;;3.38;2.10;;;29.40;39.40;;;26.78;49.90;96522.41;6034266;23;20650;-77
2023/09/05 08:36:58;;;;;;;3.78;2.17;;;29.50;39.20;;;26.84;49.38;96513.97;6107063;23;20021;-74
2023/09/05 08:39:24;;;;;;;4.65;2.03;;;29.50;38.50;;;26.95;48.54;96516.59;6061233;23;20426;-76
2023/09/05 08:41:50;;;;;;;3.22;1.58;;;29.70;38.00;;;27.04;48.15;96512.22;6060132;23;20017;-75
2023/09/05 08:44:16;;;;;;;3.30;2.20;;;29.60;38.50;;;27.19;48.27;96522.91;6085316;23;20010;-75
2023/09/05 08:46:42;;;;;;;3.17;1.85;;;29.90;38.80;;;27.34;48.17;96508.41;6084089;23;20014;-75
2023/09/05 08:49:07;;;;;;;4.00;1.92;;;30.10;38.50;;;27.46;46.96;96501.53;6061796;23;21162;-76
2023/09/05 08:51:33;;;;;;;2.63;1.50;;;30.10;37.60;;;27.56;47.12;96507.91;6084080;23;20513;-75
2023/09/05 08:54:01;;;;;;;3.00;1.98;;;30.20;37.80;;;27.69;46.63;96513.47;6060997;23;20020;-76
2023/09/05 08:56:27;;;;;;;2.33;1.80;;;30.40;37.50;;;27.81;46.31;96506.84;6084129;23;20041;-76
2023/09/05 08:58:52;;;;;;;3.35;1.90;;;30.40;36.60;;;27.88;45.45;96501.91;6107694;23;20013;-75
2023/09/05 09:01:19;;;;;;;3.75;2.20;;;30.50;36.60;;;27.92;44.50;96492.94;6060700;23;20387;-75
2023/09/05 09:03:45;;;;;;;5.22;1.92;;;30.60;36.00;;;28.00;44.75;96478.75;6061421;23;20515;-76
2023/09/05 09:06:12;;;;;;;4.68;1.92;;;30.70;35.80;;;28.15;44.81;96476.94;6107816;23;20021;-76
2023/09/05 09:08:44;;;;;;;3.35;1.73;;;31.00;36.50;;;28.25;43.38;96452.47;6084732;23;20724;-76
2023/09/05 09:11:10;;;;;;;2.55;1.98;;;30.90;35.30;;;28.41;44.38;96467.38;6061272;23;20017;-76
2023/09/05 09:13:39;;;;;;;3.03;1.67;;;31.10;36.30;;;28.53;43.52;96467.75;6060985;23;20013;-75
2023/09/05 09:16:05;;;;;;;2.97;1.90;;;31.20;36.30;;;28.71;44.49;96482.34;6035357;23;20089;-77
2023/09/05 09:18:31;;;;;;;3.08;2.13;;;31.40;35.70;;;28.92;43.08;96466.59;6060113;23;20002;-76
2023/09/05 09:20:59;;;;;;;3.22;1.95;;;31.50;34.80;;;29.09;42.88;96471.47;6061038;23;20045;-78
2023/09/05 09:23:30;;;;;;;3.90;1.85;;;31.60;35.00;;;29.19;41.27;96450.38;6085088;23;20006;-75
2023/09/05 09:25:57;;;;;;;3.60;1.40;;;31.70;35.20;;;29.38;42.51;96455.72;6084814;23;20443;-75
2023/09/05 09:28:28;;;;;;;4.97;2.55;;;32.00;35.30;;;29.58;41.86;96458.06;6060668;23;20010;-75
2023/09/05 09:31:02;;;;;;;3.20;2.30;;;32.10;34.40;;;29.78;40.20;96432.44;6085368;23;20006;-76
2023/09/05 09:33:32;;;;;;;3.20;1.92;;;32.30;33.70;;;30.02;40.11;96439.53;6055467;23;20014;-75
2023/09/05 09:36:00;;;;;;;;;;;32.40;32.50;;;30.11;38.77;96429.63;6053965;23;20073;-76
2023/09/05 09:38:27;;;;;;;3.35;1.95;;;32.50;33.60;;;30.26;39.63;96445.53;6087269;23;19909;-76
2023/09/05 09:40:52;;;;;;;2.63;1.70;;;32.60;32.60;;;30.42;39.60;96435.13;6079573;23;20015;-76
2023/09/05 09:43:18;;;;;;;3.25;1.70;;;32.70;33.10;;;30.62;39.48;96431.97;6056095;23;20002;-76
2023/09/05 09:45:44;;;;;;;4.28;2.05;;;33.00;33.40;;;30.82;38.36;96417.06;6079535;23;20468;-75
2023/09/05 09:48:10;;;;;;;2.63;1.63;;;33.10;32.40;;;31.02;38.00;96419.25;6055526;23;20038;-75
2023/09/05 09:50:36;;;;;;;3.45;1.77;;;33.40;32.30;;;31.20;38.47;96414.72;6055970;23;20030;-76
2023/09/05 09:53:02;;;;;;;3.13;2.00;;;33.50;32.20;;;31.35;37.59;96411.59;6055807;23;20014;-76
2023/09/05 09:55:28;;;;;;;3.33;1.85;;;33.80;32.30;;;31.49;37.14;96405.25;6057748;23;20416;-76
2023/09/05 09:58:00;;;;;;;2.28;1.75;;;34.00;31.20;;;31.65;36.73;96398.22;6057289;23;20097;-74
2023/09/05 10:00:27;;;;;;;4.03;1.83;;;34.10;31.60;;;31.88;36.91;96386.13;6080696;23;20011;-75
2023/09/05 10:02:54;;;;;;;4.75;1.75;;;34.30;31.30;;;32.00;36.31;96388.25;6058119;23;20029;-76
2023/09/05 10:05:19;;;;;;;3.47;1.60;;;34.50;31.20;;;32.26;36.45;96386.34;6059347;23;20077;-77
2023/09/05 10:07:45;;;;;;;3.20;1.63;;;34.80;31.00;;;32.56;36.54;96386.47;6011739;23;20014;-75
2023/09/05 10:10:15;;;;;;;5.75;2.08;;;35.00;30.20;;;32.87;35.85;96389.81;6057865;23;20042;-77
2023/09/05 10:12:45;;;;;;;4.32;2.75;;;35.30;30.20;;;33.23;34.45;96369.47;6058401;23;20014;-75
2023/09/05 10:15:13;;;;;;;5.43;2.10;;;35.50;29.80;;;33.63;34.28;96366.41;6081777;23;20098;-75